createdAt,value
2018-02-19T00:00:59.650Z,16.00
2018-02-19T00:02:02.882Z,14.25
2018-02-19T00:03:06.185Z,12.65
2018-02-19T00:04:08.744Z,14.35
2018-02-19T00:05:11.256Z,14.18
2018-02-19T00:06:13.736Z,16.73
2018-02-19T00:07:16.278Z,16.20
2018-02-19T00:08:19.597Z,21.92
2018-02-19T00:09:22.151Z,14.52
2018-02-19T00:10:24.654Z,17.65
2018-02-19T00:11:27.216Z,15.00
2018-02-19T00:12:29.795Z,16.25
2018-02-19T00:13:32.318Z,11.60
2018-02-19T00:14:34.972Z,14.87
2018-02-19T00:15:37.494Z,14.15
2018-02-19T00:16:40.208Z,13.18
2018-02-19T00:17:42.682Z,13.23
2018-02-19T00:18:45.284Z,13.13
2018-02-19T00:19:47.860Z,16.80
2018-02-19T00:20:50.346Z,14.95
2018-02-19T00:21:52.860Z,13.55
2018-02-19T00:22:55.322Z,14.25
2018-02-19T00:23:58.047Z,14.52
2018-02-19T00:25:00.656Z,13.85
2018-02-19T00:26:03.154Z,13.00
2018-02-19T00:27:06.463Z,12.93
2018-02-19T00:28:08.941Z,13.62
2018-02-19T00:29:11.474Z,13.82
2018-02-19T00:30:13.956Z,13.60
2018-02-19T00:31:17.178Z,12.75
2018-02-19T00:32:19.691Z,12.90
2018-02-19T00:33:22.257Z,15.00
2018-02-19T00:34:24.720Z,14.65
2018-02-19T00:35:27.207Z,15.73
2018-02-19T00:36:30.431Z,16.33
2018-02-19T00:37:33.706Z,13.43
2018-02-19T00:38:36.200Z,13.80
2018-02-19T00:39:39.279Z,15.38
2018-02-19T00:40:41.790Z,15.65
2018-02-19T00:41:44.296Z,15.73
2018-02-19T00:42:47.570Z,12.32
2018-02-19T00:43:50.028Z,11.93
2018-02-19T00:44:52.957Z,15.02
2018-02-19T00:45:55.627Z,11.55
2018-02-19T00:46:58.346Z,13.62
2018-02-19T00:48:01.673Z,12.82
2018-02-19T00:49:05.006Z,14.45
2018-02-19T00:50:07.878Z,13.85
2018-02-19T00:51:11.131Z,13.18
2018-02-19T00:52:14.422Z,17.08
2018-02-19T00:53:16.900Z,14.90
2018-02-19T00:54:19.473Z,14.23
2018-02-19T00:55:22.137Z,13.00
2018-02-19T00:56:25.683Z,11.57
2018-02-19T00:57:28.150Z,14.18
2018-02-19T00:58:30.625Z,11.70
2018-02-19T00:59:33.207Z,13.57
2018-02-19T01:00:35.750Z,12.85
2018-02-19T01:01:38.218Z,12.93
2018-02-19T01:02:41.474Z,12.43
2018-02-19T01:03:44.725Z,14.98
2018-02-19T01:04:47.402Z,12.37
2018-02-19T01:05:49.892Z,13.45
2018-02-19T01:06:52.417Z,13.88
2018-02-19T01:07:54.911Z,13.02
2018-02-19T01:08:58.155Z,13.30
2018-02-19T01:10:01.430Z,13.25
2018-02-19T01:11:04.203Z,13.10
2018-02-19T01:12:07.654Z,11.32
2018-02-19T01:13:11.072Z,13.35
2018-02-19T01:14:13.683Z,16.92
2018-02-19T01:15:17.526Z,13.00
2018-02-19T01:16:20.022Z,13.40
2018-02-19T01:17:22.564Z,13.70
2018-02-19T01:18:25.793Z,15.90
2018-02-19T01:19:29.268Z,11.95
2018-02-19T01:20:31.776Z,15.45
2018-02-19T01:21:35.005Z,16.00
2018-02-19T01:22:37.556Z,13.18
2018-02-19T01:23:40.043Z,12.80
2018-02-19T01:24:43.189Z,15.95
2018-02-19T01:25:45.662Z,15.48
2018-02-19T01:26:48.982Z,15.95
2018-02-19T01:27:52.530Z,12.98
2018-02-19T01:28:55.099Z,13.25
2018-02-19T01:29:57.621Z,12.18
2018-02-19T01:31:00.956Z,12.13
2018-02-19T01:32:03.902Z,17.83
2018-02-19T01:33:06.462Z,15.68
2018-02-19T01:34:08.978Z,11.00
2018-02-19T01:35:12.226Z,13.85
2018-02-19T01:36:15.564Z,14.87
2018-02-19T01:37:18.155Z,11.68
2018-02-19T01:38:20.672Z,16.12
2018-02-19T01:39:23.651Z,12.75
2018-02-19T01:40:26.208Z,13.93
2018-02-19T01:41:29.805Z,14.10
2018-02-19T01:42:32.516Z,15.32
2018-02-19T01:43:35.115Z,14.65
2018-02-19T01:44:38.333Z,13.15
2018-02-19T01:45:40.797Z,13.65
2018-02-19T01:46:44.407Z,20.45
2018-02-19T01:47:46.897Z,14.30
2018-02-19T01:48:49.397Z,15.10
2018-02-19T01:50:04.442Z,15.27
2018-02-19T01:51:06.919Z,11.25
2018-02-19T01:52:11.846Z,14.60
2018-02-19T01:53:14.335Z,17.37
2018-02-19T01:54:17.591Z,15.30
2018-02-19T01:55:20.053Z,11.98
2018-02-19T01:56:22.560Z,15.93
2018-02-19T01:57:25.004Z,12.68
2018-02-19T01:58:27.601Z,15.70
2018-02-19T01:59:30.114Z,13.35
2018-02-19T02:00:33.356Z,15.02
2018-02-19T02:01:35.845Z,13.85
2018-02-19T02:02:39.109Z,11.55
2018-02-19T02:03:42.429Z,15.70
2018-02-19T02:04:44.903Z,14.40
2018-02-19T02:05:47.423Z,12.25
2018-02-19T02:06:49.961Z,16.58
2018-02-19T02:07:52.505Z,10.95
2018-02-19T02:08:54.970Z,13.52
2018-02-19T02:09:58.240Z,12.93
2018-02-19T02:11:00.823Z,14.38
2018-02-19T02:12:03.291Z,11.23
2018-02-19T02:13:05.751Z,13.43
2018-02-19T02:14:08.701Z,15.23
2018-02-19T02:15:11.172Z,15.40
2018-02-19T02:16:13.671Z,15.00
2018-02-19T02:17:16.173Z,15.45
2018-02-19T02:18:18.660Z,16.55
2018-02-19T02:19:21.139Z,14.25
2018-02-19T02:20:24.381Z,15.00
2018-02-19T02:21:26.931Z,16.52
2018-02-19T02:22:29.856Z,15.38
2018-02-19T02:23:32.419Z,13.70
2018-02-19T02:24:34.925Z,12.10
2018-02-19T02:25:38.371Z,13.32
2018-02-19T02:26:41.339Z,11.48
2018-02-19T02:27:43.818Z,13.32
2018-02-19T02:28:46.357Z,13.13
2018-02-19T02:29:49.599Z,11.93
2018-02-19T02:30:52.842Z,14.43
2018-02-19T02:31:56.080Z,16.33
2018-02-19T02:32:59.332Z,14.35
2018-02-19T02:34:02.631Z,14.90
2018-02-19T02:35:05.101Z,14.10
2018-02-19T02:36:08.310Z,19.02
2018-02-19T02:37:10.775Z,19.73
2018-02-19T02:38:13.348Z,11.98
2018-02-19T02:39:15.807Z,13.98
2018-02-19T02:40:19.035Z,14.80
2018-02-19T02:41:22.281Z,14.60
2018-02-19T02:42:25.539Z,12.77
2018-02-19T02:43:28.787Z,15.40
2018-02-19T02:44:31.252Z,14.27
2018-02-19T02:45:33.717Z,15.38
2018-02-19T02:46:36.978Z,14.40
2018-02-19T02:47:40.335Z,13.75
2018-02-19T02:48:42.809Z,12.23
2018-02-19T02:49:45.283Z,13.57
2018-02-19T02:50:47.799Z,13.60
2018-02-19T02:51:51.051Z,13.15
2018-02-19T02:52:54.399Z,12.80
2018-02-19T02:53:56.926Z,16.52
2018-02-19T02:54:59.446Z,12.60
2018-02-19T02:56:01.904Z,13.65
2018-02-19T02:57:04.447Z,12.85
2018-02-19T02:58:06.952Z,13.48
2018-02-19T02:59:09.522Z,17.33
2018-02-19T03:00:12.080Z,11.98
2018-02-19T03:01:15.364Z,11.60
2018-02-19T03:02:18.054Z,12.23
2018-02-19T03:03:20.538Z,14.18
2018-02-19T03:04:23.003Z,12.95
2018-02-19T03:05:25.512Z,16.83
2018-02-19T03:06:28.901Z,13.00
2018-02-19T03:07:32.200Z,14.50
2018-02-19T03:08:35.539Z,14.35
2018-02-19T03:09:38.780Z,15.73
2018-02-19T03:10:42.018Z,12.68
2018-02-19T03:11:45.361Z,16.17
2018-02-19T03:12:48.638Z,15.55
2018-02-19T03:13:51.102Z,13.23
2018-02-19T03:14:53.566Z,11.65
2018-02-19T03:15:56.825Z,14.95
2018-02-19T03:17:00.085Z,14.02
2018-02-19T03:18:02.798Z,11.88
2018-02-19T03:19:05.266Z,15.32
2018-02-19T03:20:07.731Z,12.40
2018-02-19T03:21:10.997Z,14.65
2018-02-19T03:22:14.354Z,11.55
2018-02-19T03:23:16.858Z,13.88
2018-02-19T03:24:19.328Z,16.08
2018-02-19T03:25:21.837Z,16.65
2018-02-19T03:26:24.385Z,12.48
2018-02-19T03:27:26.912Z,15.00
2018-02-19T03:28:29.541Z,13.27
2018-02-19T03:29:32.084Z,11.23
2018-02-19T03:30:34.536Z,13.27
2018-02-19T03:31:37.791Z,17.58
2018-02-19T03:32:40.714Z,16.35
2018-02-19T03:33:43.933Z,13.18
2018-02-19T03:34:47.175Z,17.42
2018-02-19T03:35:50.634Z,16.30
2018-02-19T03:36:53.886Z,13.20
2018-02-19T03:37:56.386Z,14.80
2018-02-19T03:38:58.849Z,14.35
2018-02-19T03:40:01.324Z,15.90
2018-02-19T03:41:04.555Z,13.98
2018-02-19T03:42:07.046Z,15.25
2018-02-19T03:43:09.541Z,13.02
2018-02-19T03:44:12.815Z,16.33
2018-02-19T03:45:15.329Z,16.98
2018-02-19T03:46:17.866Z,13.77
2018-02-19T03:47:20.339Z,15.38
2018-02-19T03:48:23.310Z,15.07
2018-02-19T03:49:25.838Z,17.42
2018-02-19T03:50:28.324Z,14.35
2018-02-19T03:51:30.785Z,16.83
2018-02-19T03:52:34.012Z,15.15
2018-02-19T03:53:37.222Z,15.65
2018-02-19T03:54:39.733Z,17.17
2018-02-19T03:55:42.178Z,14.48
2018-02-19T03:56:44.646Z,14.48
2018-02-19T03:57:47.183Z,14.90
2018-02-19T03:58:49.661Z,15.18
2018-02-19T03:59:52.221Z,15.52
2018-02-19T04:00:56.108Z,14.90
2018-02-19T04:01:58.657Z,15.75
2018-02-19T04:03:01.105Z,16.48
2018-02-19T04:04:03.578Z,16.50
2018-02-19T04:05:06.063Z,16.45
2018-02-19T04:06:09.320Z,15.70
2018-02-19T04:07:11.824Z,15.02
2018-02-19T04:08:15.042Z,14.35
2018-02-19T04:09:17.526Z,13.45
2018-02-19T04:10:21.531Z,20.67
2018-02-19T04:11:24.021Z,19.10
2018-02-19T04:12:26.548Z,16.98
2018-02-19T04:13:29.002Z,15.23
2018-02-19T04:14:31.495Z,18.90
2018-02-19T04:15:33.977Z,15.40
2018-02-19T04:16:37.243Z,15.18
2018-02-19T04:17:40.401Z,19.00
2018-02-19T04:18:42.870Z,15.60
2018-02-19T04:19:45.334Z,15.18
2018-02-19T04:20:47.790Z,21.17
2018-02-19T04:21:50.280Z,17.92
2018-02-19T04:22:52.789Z,16.75
2018-02-19T04:23:56.015Z,19.62
2018-02-19T04:24:58.506Z,18.37
2018-02-19T04:26:00.966Z,18.42
2018-02-19T04:27:03.532Z,19.98
2018-02-19T04:28:06.006Z,17.77
2018-02-19T04:29:09.240Z,19.10
2018-02-19T04:31:20.682Z,16.10
2018-02-19T04:32:23.932Z,20.30
2018-02-19T04:33:26.444Z,19.33
2018-02-19T04:34:29.698Z,16.45
2018-02-19T04:35:32.205Z,17.00
2018-02-19T04:36:35.442Z,17.23
2018-02-19T04:37:38.550Z,17.30
2018-02-19T04:38:41.126Z,26.12
2018-02-19T04:39:44.406Z,16.75
2018-02-19T04:40:46.902Z,20.12
2018-02-19T04:41:50.126Z,19.42
2018-02-19T04:42:54.303Z,21.70
2018-02-19T04:43:57.565Z,16.67
2018-02-19T04:46:38.378Z,20.33
2018-02-19T04:47:40.842Z,18.52
2018-02-19T04:48:43.302Z,19.87
2018-02-19T04:49:46.031Z,20.12
2018-02-19T04:50:48.617Z,19.65
2018-02-19T04:51:51.855Z,20.05
2018-02-19T04:52:55.103Z,16.90
2018-02-19T04:53:58.336Z,19.85
2018-02-19T04:55:01.590Z,22.77
2018-02-19T04:56:04.832Z,18.40
2018-02-19T04:57:08.076Z,19.45
2018-02-19T04:58:11.352Z,18.67
2018-02-19T04:59:13.871Z,23.38
2018-02-19T05:00:16.407Z,19.65
2018-02-19T05:01:18.870Z,18.33
2018-02-19T05:02:21.350Z,17.90
2018-02-19T05:03:23.850Z,22.33
2018-02-19T05:04:26.402Z,22.45
2018-02-19T05:05:28.878Z,20.42
2018-02-19T05:06:32.186Z,22.42
2018-02-19T05:07:34.655Z,20.37
2018-02-19T05:08:37.168Z,19.58
2018-02-19T05:09:40.461Z,20.37
2018-02-19T05:10:42.956Z,22.77
2018-02-19T05:11:46.208Z,22.65
2018-02-19T05:12:48.689Z,25.52
2018-02-19T05:13:51.184Z,21.40
2018-02-19T05:14:53.709Z,25.27
2018-02-19T05:15:56.244Z,21.90
2018-02-19T05:16:58.734Z,21.58
2018-02-19T05:18:01.236Z,25.27
2018-02-19T05:19:03.768Z,20.40
2018-02-19T05:20:07.004Z,27.27
2018-02-19T05:21:10.251Z,31.80
2018-02-19T05:22:13.518Z,27.13
2018-02-19T05:23:16.037Z,23.45
2018-02-19T05:24:18.594Z,23.95
2018-02-19T05:25:21.061Z,24.33
2018-02-19T05:26:23.637Z,23.20
2018-02-19T05:27:26.108Z,22.92
2018-02-19T05:28:28.678Z,25.90
2018-02-19T05:29:31.200Z,20.83
2018-02-19T05:30:33.696Z,23.12
2018-02-19T05:31:36.966Z,22.67
2018-02-19T05:32:39.454Z,21.37
2018-02-19T05:33:41.967Z,21.62
2018-02-19T05:34:45.999Z,25.50
2018-02-19T05:35:48.519Z,21.60
2018-02-19T05:36:51.025Z,22.45
2018-02-19T05:37:53.545Z,21.55
2018-02-19T05:38:56.856Z,23.33
2018-02-19T05:39:59.354Z,28.38
2018-02-19T05:41:01.913Z,25.55
2018-02-19T05:42:04.430Z,28.38
2018-02-19T05:43:07.400Z,24.05
2018-02-19T05:44:10.637Z,22.20
2018-02-19T05:45:13.938Z,26.73
2018-02-19T05:46:16.430Z,26.08
2018-02-19T05:47:18.919Z,24.35
2018-02-19T05:48:21.389Z,24.55
2018-02-19T05:49:23.886Z,24.15
2018-02-19T05:50:26.408Z,24.70
2018-02-19T05:51:29.675Z,28.27
2018-02-19T05:52:32.147Z,26.30
2018-02-19T05:53:34.614Z,26.77
2018-02-19T05:54:37.193Z,30.35
2018-02-19T05:55:39.690Z,23.45
2018-02-19T05:56:42.157Z,28.67
2018-02-19T05:57:45.478Z,27.77
2018-02-19T05:58:47.941Z,30.12
2018-02-19T05:59:51.260Z,25.67
2018-02-19T06:00:53.866Z,27.55
2018-02-19T06:01:56.376Z,24.90
2018-02-19T06:02:58.914Z,31.20
2018-02-19T06:04:01.459Z,25.15
2018-02-19T06:05:04.042Z,25.02
2018-02-19T06:06:07.458Z,24.23
2018-02-19T06:07:10.703Z,22.80
2018-02-19T06:08:14.061Z,26.83
2018-02-19T06:09:16.538Z,28.40
2018-02-19T06:10:19.050Z,27.35
2018-02-19T06:11:23.357Z,24.85
2018-02-19T06:12:27.604Z,29.67
2018-02-19T06:13:30.287Z,25.10
2018-02-19T06:14:32.788Z,30.92
2018-02-19T06:15:36.023Z,25.12
2018-02-19T06:16:38.745Z,24.63
2018-02-19T06:17:42.033Z,25.37
2018-02-19T06:18:44.520Z,25.35
2018-02-19T06:19:46.989Z,26.12
2018-02-19T06:20:49.465Z,27.92
2018-02-19T06:21:52.786Z,29.55
2018-02-19T06:22:55.290Z,24.25
2018-02-19T06:23:57.753Z,30.70
2018-02-19T06:25:01.728Z,29.87
2018-02-19T06:26:05.473Z,25.23
2018-02-19T06:27:08.241Z,25.88
2018-02-19T06:28:10.782Z,25.77
2018-02-19T06:29:13.263Z,26.58
2018-02-19T06:30:15.721Z,33.25
2018-02-19T06:31:18.249Z,28.48
2018-02-19T06:32:21.033Z,25.37
2018-02-19T06:33:23.543Z,25.65
2018-02-19T06:34:27.514Z,23.12
2018-02-19T06:35:30.824Z,35.63
2018-02-19T06:36:33.321Z,20.92
2018-02-19T06:37:35.798Z,25.08
2018-02-19T06:38:38.304Z,26.35
2018-02-19T06:39:40.784Z,23.98
2018-02-19T06:40:44.064Z,22.67
2018-02-19T06:41:46.595Z,24.40
2018-02-19T06:42:49.071Z,26.35
2018-02-19T06:43:52.412Z,29.60
2018-02-19T06:44:56.480Z,25.15
2018-02-19T06:45:59.762Z,26.15
2018-02-19T06:47:02.282Z,25.23
2018-02-19T06:48:04.791Z,24.92
2018-02-19T06:49:07.458Z,27.13
2018-02-19T06:50:10.000Z,26.20
2018-02-19T06:51:13.301Z,30.95
2018-02-19T06:52:15.780Z,25.02
2018-02-19T06:53:19.034Z,22.50
2018-02-19T06:54:22.299Z,26.33
2018-02-19T06:55:29.752Z,24.73
2018-02-19T06:56:32.276Z,23.77
2018-02-19T06:57:34.767Z,21.98
2018-02-19T06:58:37.357Z,22.90
2018-02-19T06:59:40.229Z,23.87
2018-02-19T07:00:43.525Z,27.73
2018-02-19T07:01:46.016Z,23.45
2018-02-19T07:02:48.545Z,27.48
2018-02-19T07:03:52.503Z,30.50
2018-02-19T07:04:55.009Z,24.40
2018-02-19T07:05:58.375Z,26.42
2018-02-19T07:07:00.920Z,27.23
2018-02-19T07:08:03.483Z,25.75
2018-02-19T07:09:06.002Z,25.75
2018-02-19T07:10:08.716Z,28.40
2018-02-19T07:11:11.185Z,23.15
2018-02-19T07:12:14.415Z,26.35
2018-02-19T07:13:16.901Z,26.02
2018-02-19T07:14:19.416Z,26.98
2018-02-19T07:15:21.890Z,26.35
2018-02-19T07:16:24.526Z,27.52
2018-02-19T07:17:27.907Z,23.52
2018-02-19T07:18:30.376Z,28.00
2018-02-19T07:19:32.990Z,26.35
2018-02-19T07:20:35.453Z,24.67
2018-02-19T07:21:38.706Z,23.23
2018-02-19T07:22:41.999Z,29.33
2018-02-19T07:23:44.531Z,23.38
2018-02-19T07:24:47.070Z,26.42
2018-02-19T07:25:49.637Z,24.52
2018-02-19T07:26:52.175Z,26.08
2018-02-19T07:27:54.745Z,28.70
2018-02-19T07:28:57.226Z,26.27
2018-02-19T07:29:59.717Z,28.38
2018-02-19T07:31:02.237Z,26.15
2018-02-19T07:32:04.708Z,24.83
2018-02-19T07:33:07.233Z,22.23
2018-02-19T07:34:09.740Z,25.98
2018-02-19T07:35:12.269Z,23.65
2018-02-19T07:36:14.766Z,23.87
2018-02-19T07:37:18.141Z,28.98
2018-02-19T07:38:20.594Z,26.55
2018-02-19T07:39:23.193Z,24.83
2018-02-19T07:40:25.693Z,23.87
2018-02-19T07:41:28.937Z,27.77
2018-02-19T07:42:32.193Z,27.48
2018-02-19T07:43:35.457Z,24.00
2018-02-19T07:44:38.038Z,24.70
2018-02-19T07:45:40.538Z,24.92
2018-02-19T07:46:43.151Z,26.80
2018-02-19T07:47:45.617Z,28.52
2018-02-19T07:48:48.079Z,26.70
2018-02-19T07:49:51.347Z,26.95
2018-02-19T07:50:53.821Z,24.30
2018-02-19T07:51:57.063Z,26.45
2018-02-19T07:53:01.692Z,22.95
2018-02-19T07:54:04.194Z,24.92
2018-02-19T07:55:06.677Z,21.90
2018-02-19T07:56:09.258Z,27.58
2018-02-19T07:57:11.742Z,25.35
2018-02-19T07:58:14.993Z,28.02
2018-02-19T07:59:18.233Z,28.17
2018-02-19T08:00:21.491Z,22.98
2018-02-19T08:01:23.951Z,21.20
2018-02-19T08:02:27.298Z,24.67
2018-02-19T08:03:29.714Z,29.15
2018-02-19T08:04:32.212Z,25.05
2018-02-19T08:05:34.707Z,27.08
2018-02-19T08:06:37.940Z,29.58
2018-02-19T08:07:41.907Z,23.98
2018-02-19T08:08:45.225Z,27.35
2018-02-19T08:09:47.795Z,24.45
2018-02-19T08:10:51.040Z,28.65
2018-02-19T08:11:54.274Z,24.02
2018-02-19T08:12:58.212Z,26.60
2018-02-19T08:14:01.618Z,24.08
2018-02-19T08:15:04.092Z,26.08
2018-02-19T08:16:06.641Z,24.90
2018-02-19T08:17:09.866Z,26.65
2018-02-19T08:18:13.134Z,21.70
2018-02-19T08:19:15.629Z,28.42
2018-02-19T08:20:18.094Z,31.05
2018-02-19T08:21:20.571Z,25.85
2018-02-19T08:22:23.044Z,25.42
2018-02-19T08:23:25.524Z,27.37
2018-02-19T08:24:28.895Z,23.87
2018-02-19T08:25:31.379Z,29.15
2018-02-19T08:26:35.345Z,28.20
2018-02-19T08:27:37.819Z,28.65
2018-02-19T08:28:40.306Z,30.95
2018-02-19T08:29:43.623Z,25.15
2018-02-19T08:30:46.814Z,29.77
2018-02-19T08:31:49.279Z,26.02
2018-02-19T08:32:51.777Z,22.80
2018-02-19T08:33:54.246Z,23.17
2018-02-19T08:34:56.715Z,25.40
2018-02-19T08:35:59.218Z,28.75
2018-02-19T08:37:02.472Z,29.02
2018-02-19T08:38:04.996Z,22.62
2018-02-19T08:39:08.255Z,26.73
2018-02-19T08:40:10.866Z,26.35
2018-02-19T08:41:14.134Z,27.17
2018-02-19T08:42:16.656Z,24.10
2018-02-19T08:43:19.191Z,26.33
2018-02-19T08:44:21.658Z,26.67
2018-02-19T08:45:24.231Z,26.87
2018-02-19T08:46:27.179Z,25.10
2018-02-19T08:47:29.705Z,27.30
2018-02-19T08:48:32.172Z,26.37
2018-02-19T08:49:34.642Z,26.00
2018-02-19T08:50:37.141Z,26.48
2018-02-19T08:51:39.634Z,25.33
2018-02-19T08:52:42.113Z,25.60
2018-02-19T08:53:44.586Z,25.10
2018-02-19T08:54:48.044Z,25.73
2018-02-19T08:55:50.498Z,25.00
2018-02-19T08:56:53.770Z,28.00
2018-02-19T08:57:56.234Z,22.87
2018-02-19T08:58:58.862Z,31.60
2018-02-19T09:00:01.343Z,25.77
2018-02-19T09:01:03.859Z,24.45
2018-02-19T09:02:07.082Z,22.58
2018-02-19T09:03:10.307Z,31.27
2018-02-19T09:04:12.856Z,26.35
2018-02-19T09:05:16.101Z,23.73
2018-02-19T09:06:19.328Z,25.35
2018-02-19T09:07:22.642Z,27.00
2018-02-19T09:08:26.084Z,24.92
2018-02-19T09:09:28.539Z,27.65
2018-02-19T09:10:31.009Z,29.23
2018-02-19T09:11:33.532Z,27.30
2018-02-19T09:12:36.056Z,23.80
2018-02-19T09:13:39.263Z,26.08
2018-02-19T09:14:42.531Z,26.00
2018-02-19T09:15:45.096Z,26.10
2018-02-19T09:16:47.587Z,26.30
2018-02-19T09:17:50.067Z,23.33
2018-02-19T09:18:52.538Z,23.48
2018-02-19T09:19:55.013Z,29.67
2018-02-19T09:20:57.515Z,24.23
2018-02-19T09:22:00.020Z,26.92
2018-02-19T09:23:02.487Z,31.17
2018-02-19T09:24:05.059Z,26.37
2018-02-19T09:25:07.574Z,26.30
2018-02-19T09:26:10.818Z,23.35
2018-02-19T09:27:13.309Z,25.15
2018-02-19T09:28:15.774Z,24.48
2018-02-19T09:29:18.244Z,23.98
2018-02-19T09:30:20.722Z,27.13
2018-02-19T09:31:23.248Z,24.73
2018-02-19T09:32:25.742Z,26.15
2018-02-19T09:33:28.225Z,28.70
2018-02-19T09:34:30.694Z,25.15
2018-02-19T09:35:33.957Z,27.02
2018-02-19T09:36:37.335Z,29.10
2018-02-19T09:37:39.856Z,26.60
2018-02-19T09:38:42.328Z,26.05
2018-02-19T09:39:45.038Z,25.83
2018-02-19T09:40:47.608Z,29.73
2018-02-19T09:41:50.199Z,27.23
2018-02-19T09:42:53.533Z,26.87
2018-02-19T09:43:56.018Z,27.92
2018-02-19T09:44:58.509Z,27.40
2018-02-19T09:46:00.984Z,25.35
2018-02-19T09:47:03.483Z,28.83
2018-02-19T09:48:06.733Z,27.35
2018-02-19T09:49:09.213Z,23.70
2018-02-19T09:50:11.695Z,24.73
2018-02-19T09:51:14.197Z,31.70
2018-02-19T09:52:17.508Z,25.35
2018-02-19T09:53:20.070Z,27.27
2018-02-19T09:54:23.298Z,28.25
2018-02-19T09:55:26.568Z,25.88
2018-02-19T09:57:38.020Z,27.10
2018-02-19T09:58:40.489Z,30.48
2018-02-19T09:59:43.225Z,28.95
2018-02-19T10:00:45.710Z,27.55
2018-02-19T10:01:48.172Z,30.23
2018-02-19T10:02:50.688Z,26.00
2018-02-19T10:03:53.261Z,27.60
2018-02-19T10:04:55.793Z,28.33
2018-02-19T10:05:58.325Z,30.25
2018-02-19T10:07:00.802Z,28.90
2018-02-19T10:08:04.364Z,25.80
2018-02-19T10:09:06.831Z,28.75
2018-02-19T10:10:09.293Z,23.12
2018-02-19T10:11:12.552Z,26.62
2018-02-19T10:12:15.059Z,29.67
2018-02-19T10:13:17.530Z,23.95
2018-02-19T10:14:20.011Z,29.92
2018-02-19T10:15:22.477Z,30.77
2018-02-19T10:16:24.968Z,25.55
2018-02-19T10:17:27.487Z,31.75
2018-02-19T10:18:29.981Z,23.52
2018-02-19T10:19:32.459Z,30.98
2018-02-19T10:20:34.919Z,26.83
2018-02-19T10:21:38.003Z,31.67
2018-02-19T10:22:41.066Z,27.58
2018-02-19T10:23:43.584Z,26.67
2018-02-19T10:24:46.083Z,28.67
2018-02-19T10:25:48.575Z,29.75
2018-02-19T10:26:51.030Z,24.85
2018-02-19T10:27:54.254Z,22.90
2018-02-19T10:28:57.611Z,26.98
2018-02-19T10:30:01.516Z,23.40
2018-02-19T10:31:03.987Z,24.70
2018-02-19T10:32:07.214Z,27.13
2018-02-19T10:33:10.454Z,26.65
2018-02-19T10:34:13.021Z,27.10
2018-02-19T10:35:15.484Z,25.60
2018-02-19T10:36:18.071Z,29.65
2018-02-19T10:37:20.830Z,28.80
2018-02-19T10:38:23.301Z,30.10
2018-02-19T10:39:26.655Z,26.83
2018-02-19T10:40:29.924Z,25.27
2018-02-19T10:41:32.398Z,23.92
2018-02-19T10:42:34.918Z,27.10
2018-02-19T10:43:37.427Z,25.35
2018-02-19T10:44:39.924Z,27.45
2018-02-19T10:45:43.157Z,24.12
2018-02-19T10:46:46.829Z,24.37
2018-02-19T10:47:50.979Z,33.35
2018-02-19T10:48:53.442Z,25.02
2018-02-19T10:49:55.919Z,23.95
2018-02-19T10:51:00.482Z,25.75
2018-02-19T10:52:03.704Z,28.90
2018-02-19T10:53:06.176Z,26.42
2018-02-19T10:54:08.638Z,26.83
2018-02-19T10:55:11.921Z,23.35
2018-02-19T10:56:14.430Z,28.48
2018-02-19T10:57:17.713Z,24.75
2018-02-19T10:58:20.180Z,26.25
2018-02-19T10:59:22.651Z,24.48
2018-02-19T11:00:30.860Z,23.20
2018-02-19T11:01:34.081Z,24.50
2018-02-19T11:02:37.366Z,28.35
2018-02-19T11:03:39.916Z,26.15
2018-02-19T11:04:43.068Z,23.77
2018-02-19T11:05:45.568Z,26.05
2018-02-19T11:06:49.675Z,30.23
2018-02-19T11:07:52.218Z,24.35
2018-02-19T11:08:54.708Z,23.67
2018-02-19T11:09:57.195Z,24.12
2018-02-19T11:10:59.846Z,22.55
2018-02-19T11:12:03.215Z,29.63
2018-02-19T11:13:05.873Z,24.17
2018-02-19T11:14:08.348Z,24.12
2018-02-19T11:15:10.827Z,24.48
2018-02-19T11:16:13.368Z,24.67
2018-02-19T11:17:16.056Z,24.52
2018-02-19T11:18:18.671Z,33.40
2018-02-19T11:19:21.280Z,32.75
2018-02-19T11:20:23.807Z,28.52
2018-02-19T11:21:27.118Z,24.98
2018-02-19T11:22:30.203Z,27.85
2018-02-19T11:23:32.744Z,26.27
2018-02-19T11:24:35.323Z,24.87
2018-02-19T11:25:38.650Z,27.55
2018-02-19T11:26:41.939Z,31.83
2018-02-19T11:27:44.471Z,25.70
2018-02-19T11:28:46.964Z,26.70
2018-02-19T11:29:50.194Z,25.42
2018-02-19T11:30:53.462Z,28.92
2018-02-19T11:31:55.981Z,25.17
2018-02-19T11:32:59.289Z,27.15
2018-02-19T11:34:01.808Z,26.37
2018-02-19T11:35:04.295Z,26.50
2018-02-19T11:36:07.155Z,22.70
2018-02-19T11:37:10.129Z,27.60
2018-02-19T11:38:13.540Z,26.70
2018-02-19T11:39:16.205Z,22.17
2018-02-19T11:40:19.463Z,25.73
2018-02-19T11:41:22.803Z,27.05
2018-02-19T11:42:25.326Z,22.35
2018-02-19T11:43:28.978Z,27.30
2018-02-19T11:44:31.526Z,23.62
2018-02-19T11:45:34.008Z,24.60
2018-02-19T11:46:36.483Z,30.55
2018-02-19T11:47:39.080Z,23.02
2018-02-19T11:48:42.854Z,27.17
2018-02-19T11:49:45.343Z,23.87
2018-02-19T11:50:47.858Z,30.25
2018-02-19T11:51:50.385Z,27.98
2018-02-19T11:52:52.879Z,29.63
2018-02-19T11:53:55.338Z,21.62
2018-02-19T11:54:57.845Z,29.25
2018-02-19T11:56:00.339Z,30.12
2018-02-19T11:57:02.861Z,27.27
2018-02-19T11:58:05.617Z,26.62
2018-02-19T11:59:08.081Z,30.83
2018-02-19T12:00:10.623Z,23.50
2018-02-19T12:01:13.853Z,29.70
2018-02-19T12:02:17.099Z,27.02
2018-02-19T12:03:20.344Z,25.92
2018-02-19T12:04:23.571Z,27.48
2018-02-19T12:05:26.053Z,27.55
2018-02-19T12:06:28.550Z,29.83
2018-02-19T12:07:31.040Z,23.52
2018-02-19T12:08:33.580Z,29.17
2018-02-19T12:09:36.843Z,27.45
2018-02-19T12:10:40.122Z,27.08
2018-02-19T12:11:42.713Z,27.52
2018-02-19T12:12:46.014Z,25.58
2018-02-19T12:13:48.472Z,26.77
2018-02-19T12:14:51.864Z,32.67
2018-02-19T12:15:54.468Z,27.00
2018-02-19T12:16:56.930Z,27.08
2018-02-19T12:17:59.394Z,25.70
2018-02-19T12:19:02.670Z,26.27
2018-02-19T12:20:05.235Z,27.02
2018-02-19T12:21:07.734Z,25.67
2018-02-19T12:22:10.231Z,26.67
2018-02-19T12:23:12.769Z,30.45
2018-02-19T12:24:15.279Z,27.92
2018-02-19T12:25:18.530Z,26.45
2018-02-19T12:26:21.060Z,30.20
2018-02-19T12:27:23.593Z,25.95
2018-02-19T12:28:26.145Z,29.67
2018-02-19T12:29:28.633Z,25.80
2018-02-19T12:30:31.158Z,27.45
2018-02-19T12:31:33.653Z,23.15
2018-02-19T12:32:36.157Z,26.85
2018-02-19T12:33:38.646Z,26.52
2018-02-19T12:34:41.137Z,33.63
2018-02-19T12:35:44.400Z,22.48
2018-02-19T12:36:46.876Z,25.08
2018-02-19T12:37:49.351Z,22.42
2018-02-19T12:38:51.854Z,29.77
2018-02-19T12:39:54.461Z,25.92
2018-02-19T12:40:57.038Z,28.67
2018-02-19T12:41:59.502Z,27.05
2018-02-19T12:43:02.775Z,28.30
2018-02-19T12:44:06.082Z,27.15
2018-02-19T12:45:08.539Z,26.02
2018-02-19T12:46:12.203Z,26.95
2018-02-19T12:47:15.422Z,25.52
2018-02-19T12:48:17.890Z,26.48
2018-02-19T12:49:20.363Z,26.92
2018-02-19T12:50:22.857Z,28.87
2018-02-19T12:51:25.327Z,25.48
2018-02-19T12:52:27.790Z,27.50
2018-02-19T12:53:30.247Z,30.42
2018-02-19T12:54:32.724Z,24.40
2018-02-19T12:55:36.171Z,26.05
2018-02-19T12:56:39.415Z,32.50
2018-02-19T12:57:42.682Z,29.90
2018-02-19T12:58:45.163Z,29.33
2018-02-19T12:59:48.424Z,24.23
2018-02-19T13:00:51.782Z,25.73
2018-02-19T13:01:54.274Z,29.15
2018-02-19T13:02:56.732Z,28.48
2018-02-19T13:03:59.188Z,30.35
2018-02-19T13:05:01.653Z,28.25
2018-02-19T13:06:04.146Z,24.85
2018-02-19T13:07:07.379Z,27.50
2018-02-19T13:08:09.838Z,27.15
2018-02-19T13:09:12.314Z,28.87
2018-02-19T13:10:14.794Z,29.35
2018-02-19T13:11:18.231Z,30.60
2018-02-19T13:12:20.776Z,31.40
2018-02-19T13:13:24.010Z,25.70
2018-02-19T13:14:26.466Z,29.65
2018-02-19T13:15:28.930Z,34.13
2018-02-19T13:16:32.117Z,25.98
2018-02-19T13:17:34.627Z,27.65
2018-02-19T13:18:37.871Z,26.58
2018-02-19T13:19:41.108Z,25.30
2018-02-19T13:21:46.379Z,29.60
2018-02-19T13:22:49.805Z,26.90
2018-02-19T13:23:52.278Z,25.05
2018-02-19T13:24:54.811Z,28.40
2018-02-19T13:25:58.073Z,26.73
2018-02-19T13:27:00.612Z,26.42
2018-02-19T13:28:03.806Z,28.12
2018-02-19T13:29:06.265Z,26.55
2018-02-19T13:30:08.764Z,24.90
2018-02-19T13:31:11.258Z,22.83
2018-02-19T13:32:13.751Z,23.87
2018-02-19T13:33:16.371Z,24.33
2018-02-19T13:34:18.901Z,24.30